Time;durP1;ratioP1;P1;durP2;ratioP2;P2;SDS_P1;SDS_P2;PMS_P1;PMS_P2;Temp;Humidity;BMP_temperature;BMP_pressure;BME280_temperature;BME280_humidity;BME280_pressure;Samples;Min_cycle;Max_cycle;Signal;HPM_P1;HPM_P2
2022/10/03 00:00:17;;;;;;;118.97;113.18;;;;;;;19.06;71.47;100481.44;5017259;28;102195;-55
2022/10/03 00:03:29;;;;;;;122.22;116.20;;;;;;;19.05;71.96;100474.34;5018734;28;102257;-55
2022/10/03 00:06:23;;;;;;;103.70;98.63;;;;;;;19.05;71.96;100460.53;4964534;28;102086;-55
2022/10/03 00:09:17;;;;;;;106.63;101.35;;;;;;;19.05;71.75;100472.38;4954192;28;104266;-55
2022/10/03 00:11:59;;;;;;;110.32;104.90;;;;;;;19.05;72.03;100474.34;5027416;27;103240;-55
2022/10/03 00:14:39;;;;;;;117.75;112.05;;;;;;;19.04;71.72;100468.00;5028936;28;102768;-55
2022/10/03 00:17:14;;;;;;;112.13;106.47;;;;;;;19.05;71.76;100474.34;5018679;27;102675;-55
2022/10/03 00:19:56;;;;;;;118.50;112.70;;;;;;;19.04;71.84;100473.53;5015796;28;104091;-55
2022/10/03 00:22:34;;;;;;;115.23;109.53;;;;;;;19.05;72.07;100479.84;5032362;28;103291;-55
2022/10/03 00:25:17;;;;;;;112.00;106.47;;;;;;;19.04;71.68;100473.53;5016907;28;104758;-57
2022/10/03 00:27:51;;;;;;;116.05;110.40;;;;;;;19.05;71.64;100468.81;5018575;28;102402;-55
2022/10/03 00:30:20;;;;;;;116.30;110.68;;;;;;;19.05;71.95;100474.34;5018667;28;104417;-55
2022/10/03 00:33:17;;;;;;;121.80;115.85;;;;;;;19.04;71.92;100464.41;5036154;27;102505;-55
2022/10/03 00:35:57;;;;;;;110.80;105.40;;;;;;;19.04;71.84;100475.44;5026344;28;102292;-55
2022/10/03 00:38:58;;;;;;;117.97;112.22;;;;;;;19.04;71.98;100475.44;5037983;27;102329;-55
2022/10/03 00:41:39;;;;;;;107.65;102.43;;;;;;;19.04;71.81;100472.69;5036787;27;103915;-55
2022/10/03 00:44:24;;;;;;;113.28;107.72;;;;;;;19.04;71.73;100475.44;5028016;27;102279;-55
2022/10/03 00:47:13;;;;;;;114.45;108.85;;;;;;;19.04;71.73;100478.22;5016958;28;102110;-55
2022/10/03 00:50:16;;;;;;;119.05;113.25;;;;;;;19.03;71.72;100471.09;5015098;28;102192;-55
2022/10/03 00:53:01;;;;;;;112.97;107.50;;;;;;;19.04;71.80;100475.44;5022569;28;103922;-55
2022/10/03 00:55:42;;;;;;;107.63;102.30;;;;;;;19.03;72.07;100487.63;5026341;27;102344;-55
2022/10/03 00:58:24;;;;;;;108.82;103.53;;;;;;;19.03;72.05;100476.59;5016339;28;102311;-55
2022/10/03 01:00:56;;;;;;;115.72;110.03;;;;;;;19.03;71.93;100482.91;5017617;28;102142;-55
2022/10/03 01:03:40;;;;;;;122.80;116.82;;;;;;;19.03;71.84;100485.69;5023184;28;104176;-55
2022/10/03 01:06:21;;;;;;;113.28;107.78;;;;;;;19.03;72.00;100482.13;5017129;28;102645;-55
2022/10/03 01:09:13;;;;;;;118.80;113.05;;;;;;;19.03;71.91;100482.13;5029314;28;102334;-55
2022/10/03 01:12:04;;;;;;;110.13;104.70;;;;;;;19.02;71.71;100480.50;5037757;27;101950;-55
2022/10/03 01:14:45;;;;;;;111.40;105.88;;;;;;;19.02;72.02;100477.75;5036011;27;103912;-55
2022/10/03 01:17:22;;;;;;;115.72;110.05;;;;;;;19.02;71.94;100486.03;5019850;28;102100;-55
2022/10/03 01:20:12;;;;;;;118.50;112.75;;;;;;;19.02;72.20;100486.03;5026278;27;102284;-55
2022/10/03 01:23:09;;;;;;;109.90;104.53;;;;;;;19.02;72.07;100491.53;5035705;28;102434;-55
2022/10/03 01:25:47;;;;;;;97.93;93.13;;;;;;;19.03;71.91;100495.91;5024233;27;104012;-55
2022/10/03 01:31:33;;;;;;;103.50;98.40;;;;;;;19.03;72.13;100498.66;5024757;28;102194;-55
2022/10/03 01:34:06;;;;;;;119.88;113.85;;;;;;;19.01;72.24;100495.44;5018111;28;102345;-55
2022/10/03 01:36:43;;;;;;;124.82;118.75;;;;;;;19.02;72.00;100508.09;5034856;28;104360;-55
2022/10/03 01:39:20;;;;;;;122.28;116.30;;;;;;;19.02;71.81;100511.66;5036485;27;102280;-55
2022/10/03 01:41:57;;;;;;;119.97;114.00;;;;;;;19.02;71.96;100499.81;5034908;27;102771;-55
2022/10/03 01:44:39;;;;;;;119.22;113.40;;;;;;;19.00;71.98;100496.56;5030903;27;102125;-55
2022/10/03 01:47:18;;;;;;;112.78;107.15;;;;;;;19.01;71.84;100500.97;5035958;27;103894;-55
2022/10/03 01:49:52;;;;;;;118.60;112.80;;;;;;;19.01;71.73;100500.97;5015952;28;102038;-55
2022/10/03 01:52:30;;;;;;;112.32;106.85;;;;;;;19.02;72.05;100514.41;5015934;28;102215;-55
2022/10/03 01:55:05;;;;;;;121.15;115.30;;;;;;;19.00;72.14;100510.34;5016415;28;102470;-55
2022/10/03 01:57:41;;;;;;;131.40;124.97;;;;;;;19.00;72.14;100511.16;5014766;28;104049;-55
2022/10/03 02:00:12;;;;;;;125.15;119.05;;;;;;;19.00;72.32;100515.88;5016192;28;101972;-55
2022/10/03 02:02:44;;;;;;;121.60;115.65;;;;;;;19.00;72.21;100522.19;5024768;28;102068;-55
2022/10/03 02:05:18;;;;;;;129.57;123.28;;;;;;;19.01;72.31;100520.28;5037259;27;101972;-55
2022/10/03 02:07:54;;;;;;;136.02;129.48;;;;;;;19.00;71.87;100515.88;5038853;27;104174;-55
2022/10/03 02:10:38;;;;;;;129.95;123.68;;;;;;;19.00;71.87;100515.88;5039002;28;102590;-55
2022/10/03 02:13:12;;;;;;;122.43;116.50;;;;;;;18.99;71.99;100520.59;5019737;27;102175;-55
2022/10/03 02:16:06;;;;;;;123.35;117.30;;;;;;;18.99;71.85;100520.59;5029839;28;102127;-55
2022/10/03 02:18:46;;;;;;;112.13;106.63;;;;;;;18.99;72.31;100515.06;5018949;28;104106;-55
2022/10/03 02:21:15;;;;;;;;;;;;;;;19.00;71.90;100526.91;5031733;28;102397;-55
2022/10/03 02:23:43;;;;;;;;;;;;;;;19.00;72.13;100521.38;5039061;27;102329;-55
2022/10/03 02:26:46;;;;;;;66.43;63.15;;;;;;;18.98;72.03;100521.72;5019974;27;102236;-55
2022/10/03 02:29:34;;;;;;;85.72;81.50;;;;;;;18.98;72.71;100523.69;5003787;28;103990;-55
2022/10/03 02:32:33;;;;;;;94.57;89.90;;;;;;;18.98;72.17;100520.94;5022679;27;102172;-55
2022/10/03 02:35:31;;;;;;;88.72;84.32;;;;;;;18.96;72.32;100513.78;5018590;28;102257;-55
2022/10/03 02:38:25;;;;;;;94.17;89.57;;;;;;;18.98;72.25;100516.22;5016333;28;102238;-55
2022/10/03 02:41:17;;;;;;;101.35;96.32;;;;;;;18.99;71.89;100522.53;5018344;28;103980;-55
2022/10/03 02:44:15;;;;;;;103.85;98.75;;;;;;;18.96;72.16;100516.53;5019290;28;102352;-55
2022/10/03 02:47:21;;;;;;;105.27;100.13;;;;;;;18.96;72.27;100522.03;5018700;28;102277;-55
2022/10/03 02:50:30;;;;;;;98.75;93.90;;;;;;;18.97;72.40;100520.13;5019196;28;102281;-55
2022/10/03 02:53:44;;;;;;;96.55;91.85;;;;;;;18.98;72.49;100523.69;5017825;28;104079;-55
2022/10/03 02:57:04;;;;;;;98.68;93.88;;;;;;;18.96;72.32;100522.03;5018983;28;102108;-55
2022/10/03 02:59:58;;;;;;;90.90;86.43;;;;;;;18.98;72.24;100523.69;4955963;28;102491;-55
2022/10/03 03:03:00;;;;;;;100.40;95.50;;;;;;;18.98;72.25;100526.44;5028679;28;102437;-55
2022/10/03 03:05:55;;;;;;;99.45;94.60;;;;;;;18.96;72.21;100533.06;5024296;28;104135;-55
2022/10/03 03:08:46;;;;;;;92.55;88.07;;;;;;;18.95;72.49;100525.97;5037722;27;102267;-55
2022/10/03 03:11:35;;;;;;;104.65;99.47;;;;;;;18.96;72.30;100527.56;5038338;27;101942;-55
2022/10/03 03:14:37;;;;;;;101.22;96.30;;;;;;;18.95;72.05;100520.44;5039667;27;102131;-55
2022/10/03 03:17:22;;;;;;;95.20;90.55;;;;;;;18.96;72.37;100527.56;5037450;27;104314;-55
2022/10/03 03:20:18;;;;;;;114.32;108.72;;;;;;;18.94;72.33;100524.34;5038336;27;102151;-55
2022/10/03 03:23:04;;;;;;;123.22;117.32;;;;;;;18.95;72.50;100525.97;5005904;28;102190;-55
2022/10/03 03:26:10;;;;;;;123.00;117.07;;;;;;;18.96;72.57;100526.75;5019534;28;102406;-55
2022/10/03 03:28:47;;;;;;;109.43;104.10;;;;;;;18.96;72.24;100529.53;5012157;28;104034;-55
2022/10/03 03:31:17;;;;;;;122.43;116.47;;;;;;;18.95;72.25;100525.97;5027182;28;101955;-55
2022/10/03 03:33:59;;;;;;;130.68;124.38;;;;;;;18.95;72.15;100520.44;5038212;27;102495;-55
2022/10/03 03:36:37;;;;;;;124.28;118.28;;;;;;;18.95;72.19;100519.63;5034850;27;102287;-55
2022/10/03 03:39:21;;;;;;;115.60;110.00;;;;;;;18.96;72.54;100527.56;5027171;27;103749;-55
2022/10/03 03:42:07;;;;;;;124.40;118.38;;;;;;;18.94;72.30;100518.84;5032820;28;102175;-55
2022/10/03 03:45:01;;;;;;;115.50;109.90;;;;;;;18.95;72.34;100520.44;5038285;27;102539;-55
2022/10/03 03:47:49;;;;;;;115.40;109.85;;;;;;;18.95;72.31;100528.72;5039230;27;102160;-55
2022/10/03 03:50:30;;;;;;;122.25;116.35;;;;;;;18.95;72.41;100530.66;5037449;27;104057;-55
2022/10/03 03:53:22;;;;;;;121.80;115.93;;;;;;;18.94;72.40;100518.84;5034802;27;102403;-55
2022/10/03 03:56:06;;;;;;;118.50;112.80;;;;;;;18.94;72.53;100518.84;5017443;28;102020;-55
2022/10/03 03:58:38;;;;;;;123.53;117.55;;;;;;;18.94;72.45;100516.06;5034456;28;102523;-55
2022/10/03 04:01:34;;;;;;;126.78;120.68;;;;;;;18.95;72.55;100519.63;5033682;27;103912;-56
2022/10/03 04:04:15;;;;;;;118.93;113.13;;;;;;;18.93;72.31;100514.47;5017938;28;101885;-55
2022/10/03 04:06:50;;;;;;;128.88;122.70;;;;;;;18.94;72.16;100523.53;5025183;28;102365;-55
2022/10/03 04:09:52;;;;;;;128.90;122.70;;;;;;;18.94;72.56;100529.06;5038467;27;102405;-55
2022/10/03 04:12:35;;;;;;;126.43;120.35;;;;;;;18.93;72.35;100533.78;5023984;27;103843;-55
2022/10/03 04:15:23;;;;;;;123.18;117.22;;;;;;;18.93;72.18;100533.78;5021680;28;102219;-55
2022/10/03 04:21:13;;;;;;;109.45;104.13;;;;;;;18.93;72.62;100539.28;5028701;27;102103;-54
2022/10/03 04:23:57;;;;;;;116.68;111.00;;;;;;;18.92;72.29;100534.09;5023016;28;103969;-55
2022/10/03 04:26:45;;;;;;;121.18;115.28;;;;;;;18.93;72.37;100528.25;5017075;27;102469;-55
2022/10/03 04:29:32;;;;;;;112.28;106.78;;;;;;;18.93;72.45;100532.94;5022037;28;102182;-55
2022/10/03 04:32:09;;;;;;;119.70;113.82;;;;;;;18.92;72.53;100534.88;5027096;27;102297;-55
2022/10/03 04:34:53;;;;;;;114.97;109.43;;;;;;;18.92;72.56;100521.09;5020963;28;104034;-55
2022/10/03 04:37:30;;;;;;;124.60;118.55;;;;;;;18.93;72.75;100521.91;5027047;27;102216;-55
2022/10/03 04:40:16;;;;;;;122.03;116.13;;;;;;;18.93;72.35;100516.38;5029549;28;101942;-55
2022/10/03 04:42:56;;;;;;;117.82;112.10;;;;;;;18.93;72.43;100525.50;5025436;28;102266;-55
2022/10/03 04:45:37;;;;;;;123.10;117.15;;;;;;;18.93;72.77;100516.38;5020708;27;103834;-55
2022/10/03 04:48:15;;;;;;;132.25;125.88;;;;;;;18.93;72.92;100517.22;5024674;28;102285;-55
2022/10/03 04:50:49;;;;;;;131.30;125.00;;;;;;;18.93;72.79;100516.38;5035889;27;102363;-56
2022/10/03 04:53:35;;;;;;;129.63;123.43;;;;;;;18.93;72.50;100517.22;5030956;28;102586;-55
2022/10/03 04:56:21;;;;;;;126.65;120.55;;;;;;;18.94;72.66;100513.31;5032665;27;103862;-55
2022/10/03 04:58:56;;;;;;;122.13;116.20;;;;;;;18.94;72.30;100516.06;5017332;28;102245;-55
2022/10/03 05:01:30;;;;;;;131.73;125.38;;;;;;;18.96;73.00;100510.22;5024589;28;102033;-55
2022/10/03 05:04:05;;;;;;;132.52;126.15;;;;;;;18.98;73.34;100524.50;5036652;27;102419;-55
2022/10/03 05:06:47;;;;;;;134.45;127.97;;;;;;;19.00;73.56;100515.88;5022960;27;104087;-55
2022/10/03 05:09:22;;;;;;;125.35;119.32;;;;;;;19.00;73.89;100522.19;5026556;27;102314;-55
2022/10/03 05:12:01;;;;;;;148.65;141.63;;;;;;;19.00;73.77;100521.38;5018517;28;102055;-55
2022/10/03 05:14:48;;;;;;;131.93;125.63;;;;;;;19.02;74.36;100527.41;5032441;27;102132;-55
2022/10/03 05:17:20;;;;;;;120.65;114.85;;;;;;;19.04;73.86;100533.38;5029574;28;104103;-55
2022/10/03 05:20:00;;;;;;;139.13;132.40;;;;;;;19.04;73.82;100525.94;5028430;27;102538;-55
2022/10/03 05:22:39;;;;;;;131.02;124.75;;;;;;;19.06;74.37;100529.16;5023178;27;102048;-55
2022/10/03 05:25:24;;;;;;;136.50;129.98;;;;;;;19.07;73.99;100538.22;5020066;28;102032;-55
2022/10/03 05:28:03;;;;;;;128.07;121.97;;;;;;;19.08;73.79;100545.38;5015692;28;104102;-55
2022/10/03 05:30:40;;;;;;;124.05;118.10;;;;;;;19.07;74.00;100539.03;5023919;28;102101;-55
2022/10/03 05:33:16;;;;;;;137.35;130.77;;;;;;;19.08;73.83;100534.34;5031997;28;102132;-55
2022/10/03 05:35:54;;;;;;;128.23;122.10;;;;;;;19.08;73.71;100539.88;5029517;27;102376;-55
2022/10/03 05:39:00;;;;;;;140.35;133.65;;;;;;;19.05;74.03;100543.28;5020959;27;103813;-55
2022/10/03 05:41:30;;;;;;;114.95;109.43;;;;;;;19.04;73.90;100533.38;5033654;28;102301;-55
2022/10/03 05:44:04;;;;;;;136.90;130.38;;;;;;;19.04;73.42;100539.72;5028571;28;102287;-55
2022/10/03 05:46:56;;;;;;;139.70;133.00;;;;;;;19.04;73.66;100544.41;5027113;28;102355;-55
2022/10/03 05:49:43;;;;;;;128.25;122.13;;;;;;;19.04;73.22;100544.41;5019386;28;103918;-56
2022/10/03 05:52:38;;;;;;;132.75;126.45;;;;;;;19.03;73.34;100535.31;5018034;28;102061;-55
2022/10/03 05:55:25;;;;;;;126.20;120.07;;;;;;;19.03;73.38;100531.75;5023678;28;102305;-55
2022/10/03 05:58:13;;;;;;;128.77;122.60;;;;;;;19.04;72.84;100527.84;5027508;28;102163;-55
2022/10/03 06:01:02;;;;;;;131.90;125.60;;;;;;;19.05;72.76;100529.50;5024004;27;103979;-55
2022/10/03 06:04:01;;;;;;;126.28;120.22;;;;;;;19.06;72.79;100531.09;5034397;28;101945;-55
2022/10/03 06:06:42;;;;;;;126.75;120.70;;;;;;;19.05;72.77;100530.28;5019659;28;101825;-55
2022/10/03 06:09:39;;;;;;;125.32;119.30;;;;;;;19.07;73.04;100527.19;5032351;28;102539;-55
2022/10/03 06:12:10;;;;;;;125.25;119.20;;;;;;;19.07;72.64;100532.72;5019107;28;103862;-55
2022/10/03 06:15:07;;;;;;;144.77;137.82;;;;;;;19.07;72.62;100529.94;5030024;27;101980;-55
2022/10/03 06:17:59;;;;;;;135.02;128.65;;;;;;;19.07;72.81;100533.50;5033952;28;102131;-55
2022/10/03 06:21:05;;;;;;;130.10;123.85;;;;;;;19.08;73.05;100532.41;5034744;28;102186;-55
2022/10/03 06:23:52;;;;;;;114.20;108.53;;;;;;;19.09;72.92;100533.19;5026104;28;103854;-55
2022/10/03 06:26:50;;;;;;;131.90;125.50;;;;;;;19.10;73.01;100532.84;5020237;28;101798;-55
2022/10/03 06:29:47;;;;;;;132.63;126.22;;;;;;;19.11;72.72;100539.16;5021591;28;102164;-55
2022/10/03 06:32:51;;;;;;;122.88;117.03;;;;;;;19.11;72.98;100542.75;5023442;27;103089;-55
2022/10/03 06:36:03;;;;;;;119.40;113.65;;;;;;;19.12;72.64;100540.81;5001617;27;104085;-55
2022/10/03 06:39:02;;;;;;;126.80;120.75;;;;;;;19.13;72.80;100536.91;4983894;28;102118;-55
2022/10/03 06:42:22;;;;;;;130.93;124.63;;;;;;;19.13;72.73;100532.19;5039430;28;102363;-55
2022/10/03 06:45:28;;;;;;;125.22;119.22;;;;;;;19.15;72.68;100540.16;4975934;28;102158;-55
2022/10/03 06:48:22;;;;;;;133.98;127.55;;;;;;;19.16;72.83;100541.75;5026554;28;103917;-55
2022/10/03 06:51:00;;;;;;;126.03;120.00;;;;;;;19.17;72.68;100551.63;5029391;27;102492;-55
2022/10/03 06:53:43;;;;;;;152.88;145.63;;;;;;;19.17;72.70;100543.38;5019545;28;101791;-55
2022/10/03 06:56:45;;;;;;;155.93;148.55;;;;;;;19.18;72.60;100544.97;5027801;28;102862;-55
2022/10/03 06:59:45;;;;;;;138.82;132.23;;;;;;;19.19;72.54;100543.84;5020964;28;103878;-56
2022/10/03 07:02:34;;;;;;;141.60;134.90;;;;;;;19.19;72.43;100541.09;5031786;27;102017;-55
2022/10/03 07:05:41;;;;;;;147.23;140.20;;;;;;;19.21;72.39;100544.31;5027054;28;102348;-55
2022/10/03 07:08:54;;;;;;;144.95;138.05;;;;;;;19.22;72.41;100545.91;5002262;27;102572;-55
2022/10/03 07:11:43;;;;;;;138.93;132.23;;;;;;;19.23;72.19;100547.56;5031468;27;103857;-56
2022/10/03 07:14:43;;;;;;;141.18;134.43;;;;;;;19.23;72.35;100550.31;5032136;28;102200;-55
2022/10/03 07:17:24;;;;;;;144.50;137.52;;;;;;;19.24;72.77;100538.13;5024020;28;102060;-55
2022/10/03 07:20:20;;;;;;;166.38;158.40;;;;;;;19.25;72.58;100534.22;5021941;28;102555;-56
2022/10/03 07:23:19;;;;;;;158.68;151.13;;;;;;;19.25;72.52;100534.22;5033871;28;103822;-55
2022/10/03 07:26:21;;;;;;;157.07;149.52;;;;;;;19.27;71.97;100531.94;5022695;28;102163;-54
2022/10/03 07:29:08;;;;;;;156.85;149.35;;;;;;;19.29;71.93;100535.16;5002406;27;102300;-55
2022/10/03 07:31:50;;;;;;;160.57;152.98;;;;;;;19.29;71.93;100529.66;5028451;27;102433;-55
2022/10/03 07:34:51;;;;;;;167.00;159.07;;;;;;;19.31;72.22;100524.63;5026824;28;104135;-55
2022/10/03 07:40:48;;;;;;;151.75;144.52;;;;;;;19.34;72.22;100532.22;5017783;28;102381;-55
2022/10/03 07:43:44;;;;;;;158.18;150.65;;;;;;;19.35;72.11;100538.56;5030483;28;102612;-55
2022/10/03 07:46:40;;;;;;;161.20;153.55;;;;;;;19.35;72.25;100533.84;5037168;27;104011;-55
2022/10/03 07:49:21;;;;;;;160.82;153.15;;;;;;;19.37;71.95;100528.00;5022648;27;102500;-55
2022/10/03 07:52:07;;;;;;;179.77;171.25;;;;;;;19.38;72.14;100522.13;5019349;27;102094;-55
2022/10/03 07:54:57;;;;;;;175.02;166.68;;;;;;;19.38;71.92;100527.66;5023235;28;102078;-55
2022/10/03 07:57:36;;;;;;;179.38;170.77;;;;;;;19.40;72.18;100525.38;5020663;28;103978;-55
2022/10/03 08:00:18;;;;;;;190.05;181.10;;;;;;;19.41;71.80;100523.41;5023799;27;102183;-55
2022/10/03 08:03:21;;;;;;;177.88;169.40;;;;;;;19.41;71.82;100521.47;5030495;27;102782;-55
2022/10/03 08:06:23;;;;;;;175.05;166.70;;;;;;;19.42;71.95;100511.22;5019627;28;102888;-55
2022/10/03 08:09:25;;;;;;;173.70;165.43;;;;;;;19.43;71.79;100508.13;5019611;28;104049;-55
2022/10/03 08:12:02;;;;;;;;;;;;;;;19.48;71.80;100509.09;5019965;28;102672;-55
2022/10/03 08:14:40;;;;;;;111.55;106.10;;;;;;;19.47;71.34;100497.22;5020284;28;104700;-55
2022/10/03 08:17:51;;;;;;;161.00;153.27;;;;;;;19.49;71.65;100494.13;5026330;27;102329;-55
2022/10/03 08:20:39;;;;;;;156.57;149.05;;;;;;;19.50;71.59;100501.25;5023214;27;104917;-56
2022/10/03 08:23:37;;;;;;;172.20;164.07;;;;;;;19.52;71.40;100496.22;5015659;28;102159;-56
2022/10/03 08:26:16;;;;;;;161.73;154.02;;;;;;;19.53;71.09;100490.34;4982060;28;102191;-55
2022/10/03 08:29:22;;;;;;;180.70;172.13;;;;;;;19.54;71.15;100491.16;5025720;28;102231;-55
2022/10/03 08:32:28;;;;;;;167.57;159.50;;;;;;;19.53;71.00;100487.59;5004762;28;103909;-55
2022/10/03 08:35:28;;;;;;;161.23;153.55;;;;;;;19.54;70.90;100493.91;5015717;28;102201;-55
2022/10/03 08:38:32;;;;;;;166.88;158.90;;;;;;;19.52;70.87;100494.28;5017011;28;104307;-55
2022/10/03 08:41:34;;;;;;;166.32;158.38;;;;;;;19.51;70.86;100487.16;4999718;28;102499;-55
2022/10/03 08:44:38;;;;;;;159.18;151.52;;;;;;;19.50;70.83;100487.47;5036512;27;104377;-55
2022/10/03 08:47:37;;;;;;;161.77;154.07;;;;;;;19.49;70.64;100483.09;5023554;28;102497;-55
2022/10/03 08:50:26;;;;;;;155.77;148.15;;;;;;;19.49;70.09;100488.63;5025755;28;101958;-57
2022/10/03 08:53:30;;;;;;;162.18;154.35;;;;;;;19.48;70.22;100487.00;5020138;28;102238;-55
2022/10/03 08:56:05;;;;;;;145.05;138.05;;;;;;;19.47;70.59;100490.88;5014361;28;103968;-55
2022/10/03 08:59:12;;;;;;;159.38;151.65;;;;;;;19.44;70.55;100482.16;5018492;28;102073;-56
2022/10/03 09:02:13;;;;;;;138.90;132.05;;;;;;;19.44;70.58;100487.69;5023298;28;102416;-57
2022/10/03 09:05:15;;;;;;;146.65;139.60;;;;;;;19.44;70.56;100482.16;4995792;28;103105;-56
2022/10/03 09:08:47;;;;;;;143.35;136.43;;;;;;;19.48;70.44;100481.50;5018893;27;104045;-56
2022/10/03 09:11:47;;;;;;;131.63;125.22;;;;;;;19.47;70.30;100477.09;5020212;28;102101;-57
2022/10/03 09:15:01;;;;;;;143.38;136.43;;;;;;;19.47;70.47;100479.84;4985664;27;102557;-57
2022/10/03 09:17:59;;;;;;;141.45;134.60;;;;;;;19.47;70.57;100485.38;4967084;28;102342;-57
2022/10/03 09:21:05;;;;;;;140.52;133.80;;;;;;;19.45;70.79;100483.75;4961099;28;104051;-58
2022/10/03 09:24:08;;;;;;;129.55;123.30;;;;;;;19.43;70.93;100479.72;5024719;28;102421;-58
2022/10/03 09:26:58;;;;;;;134.75;128.13;;;;;;;19.42;70.68;100478.91;5013992;28;102265;-55
2022/10/03 09:29:43;;;;;;;133.07;126.63;;;;;;;19.40;70.95;100470.19;5016649;28;102297;-56
2022/10/03 09:32:50;;;;;;;147.57;140.50;;;;;;;19.38;70.96;100461.41;5015740;28;104184;-56
2022/10/03 09:35:41;;;;;;;137.60;130.93;;;;;;;19.38;71.11;100466.94;5017302;28;102295;-56
2022/10/03 09:38:48;;;;;;;134.30;127.80;;;;;;;19.38;70.85;100466.94;5020827;28;102929;-55
2022/10/03 09:41:31;;;;;;;130.00;123.70;;;;;;;19.37;70.99;100468.09;5009548;28;103142;-57
2022/10/03 09:44:21;;;;;;;136.35;129.70;;;;;;;19.38;71.02;100460.63;5027913;28;103900;-56
2022/10/03 09:47:27;;;;;;;139.68;132.93;;;;;;;19.39;70.78;100451.19;5024472;27;102728;-56
2022/10/03 09:50:54;;;;;;;123.97;117.93;;;;;;;19.39;70.82;100460.28;5014357;28;102009;-56
2022/10/03 09:54:00;;;;;;;119.45;113.47;;;;;;;19.37;70.60;100457.06;5033208;28;102409;-56
2022/10/03 09:56:56;;;;;;;120.78;114.88;;;;;;;19.37;70.58;100459.81;5014747;28;104028;-57
2022/10/03 10:00:02;;;;;;;132.48;126.03;;;;;;;19.36;71.11;100452.66;5015453;28;103091;-56
2022/10/03 10:02:54;;;;;;;121.90;116.00;;;;;;;19.35;70.79;100455.78;5013704;28;102257;-56
2022/10/03 10:05:53;;;;;;;125.75;119.65;;;;;;;19.34;71.11;100448.63;5016310;28;102395;-56
2022/10/03 10:08:48;;;;;;;117.53;111.72;;;;;;;19.33;71.21;100445.09;5013158;28;103916;-56
2022/10/03 10:11:35;;;;;;;123.40;117.43;;;;;;;19.32;70.77;100440.69;5013887;28;102323;-56
2022/10/03 10:14:38;;;;;;;137.63;130.95;;;;;;;19.34;70.88;100437.59;5015427;28;102098;-56
2022/10/03 10:17:55;;;;;;;122.03;116.07;;;;;;;19.32;70.73;100439.88;5019510;28;102499;-56
2022/10/03 10:20:42;;;;;;;111.10;105.70;;;;;;;19.33;70.76;100436.81;5010140;28;104107;-56
2022/10/03 10:23:24;;;;;;;119.53;113.60;;;;;;;19.32;70.93;100439.88;5015100;28;102376;-56
2022/10/03 10:26:41;;;;;;;124.00;117.90;;;;;;;19.30;70.70;100420.91;5017171;27;102556;-56
2022/10/03 10:29:28;;;;;;;108.20;102.93;;;;;;;19.29;70.97;100412.97;4959113;28;102650;-56
2022/10/03 10:32:40;;;;;;;116.40;110.78;;;;;;;19.28;70.43;100412.16;4940173;28;104844;-56
2022/10/03 10:35:45;;;;;;;108.78;103.43;;;;;;;19.27;70.19;100413.31;4994041;28;102349;-56
2022/10/03 10:38:26;;;;;;;105.47;100.25;;;;;;;19.26;70.03;100406.19;5021320;28;102504;-56
2022/10/03 10:41:32;;;;;;;120.28;114.43;;;;;;;19.26;69.76;100408.94;5028613;27;102032;-56
2022/10/03 10:44:43;;;;;;;106.13;100.90;;;;;;;19.26;70.07;100403.44;5015557;27;104124;-56
2022/10/03 10:48:10;;;;;;;105.85;100.68;;;;;;;19.25;69.85;100401.78;5004291;28;102866;-56
2022/10/03 10:51:16;;;;;;;96.22;91.55;;;;;;;19.24;69.92;100405.69;5014515;28;103175;-56
2022/10/03 10:54:18;;;;;;;108.50;103.15;;;;;;;19.24;69.96;100405.69;5039494;27;102257;-56
2022/10/03 10:57:06;;;;;;;107.40;102.18;;;;;;;19.24;69.86;100405.69;5015420;28;103909;-55
2022/10/03 11:00:07;;;;;;;106.15;100.93;;;;;;;19.24;69.81;100416.75;5019009;28;102160;-56
2022/10/03 11:03:26;;;;;;;106.57;101.30;;;;;;;19.24;69.91;100427.78;5026893;28;102117;-56
2022/10/03 11:06:35;;;;;;;103.03;97.78;;;;;;;19.23;69.88;100441.91;5023102;27;103198;-56
2022/10/03 11:09:27;;;;;;;104.50;99.35;;;;;;;19.22;70.20;100449.34;5029746;28;103815;-56
2022/10/03 11:12:31;;;;;;;110.03;104.65;;;;;;;19.21;70.59;100448.56;5022506;28;102536;-56
2022/10/03 11:15:36;;;;;;;112.18;106.70;;;;;;;19.21;70.61;100445.00;5030187;28;101869;-56
2022/10/03 11:18:43;;;;;;;109.85;104.53;;;;;;;19.19;71.52;100447.31;5020215;28;102443;-56
2022/10/03 11:21:51;;;;;;;106.22;101.07;;;;;;;19.18;71.66;100442.91;5031646;28;103907;-56
2022/10/03 11:25:07;;;;;;;98.35;93.50;;;;;;;19.16;71.71;100443.25;5018293;28;102380;-56
2022/10/03 11:28:06;;;;;;;94.35;89.72;;;;;;;19.15;71.89;100443.59;5004102;28;102180;-56
2022/10/03 11:31:03;;;;;;;101.72;96.75;;;;;;;19.15;71.58;100447.16;5018660;28;102606;-56
2022/10/03 11:34:14;;;;;;;105.15;99.93;;;;;;;19.15;72.04;100444.41;5018012;28;103898;-56
2022/10/03 11:37:15;;;;;;;96.72;91.97;;;;;;;19.15;71.73;100444.41;5032634;27;102001;-56
2022/10/03 11:39:52;;;;;;;102.47;97.50;;;;;;;19.14;71.69;100451.03;5008409;28;102516;-56
2022/10/03 11:42:31;;;;;;;113.18;107.63;;;;;;;19.16;71.35;100453.47;5038732;27;102419;-56
2022/10/03 11:44:59;;;;;;;114.90;109.30;;;;;;;19.15;71.41;100452.69;5022549;27;103874;-56
2022/10/03 11:47:54;;;;;;;114.03;108.45;;;;;;;19.15;71.22;100447.16;5022259;28;102489;-56
2022/10/03 11:50:40;;;;;;;112.25;106.75;;;;;;;19.16;71.23;100445.22;5014819;28;102325;-56
2022/10/03 11:53:46;;;;;;;107.57;102.28;;;;;;;19.15;70.93;100446.34;5025527;28;102123;-56
2022/10/03 11:56:35;;;;;;;107.00;101.65;;;;;;;19.16;71.24;100464.53;5019894;28;104039;-56
2022/10/03 11:59:21;;;;;;;108.47;103.18;;;;;;;19.15;71.26;100451.88;5021261;28;102372;-56
2022/10/03 12:02:05;;;;;;;105.95;100.78;;;;;;;19.15;71.06;100449.13;5019873;28;102499;-56
2022/10/03 12:04:45;;;;;;;112.85;107.35;;;;;;;19.14;71.32;100444.72;5026934;27;102348;-56
2022/10/03 12:10:13;;;;;;;112.68;107.18;;;;;;;19.14;71.37;100433.69;5022070;28;102521;-56
2022/10/03 12:12:44;;;;;;;118.40;112.60;;;;;;;19.14;71.12;100436.44;5021318;28;102032;-56
2022/10/03 12:15:26;;;;;;;116.45;110.75;;;;;;;19.15;71.14;100438.09;5026719;28;101925;-56
2022/10/03 12:18:02;;;;;;;114.00;108.43;;;;;;;19.13;71.46;100426.56;5029728;27;104074;-56
2022/10/03 12:20:38;;;;;;;116.65;110.97;;;;;;;19.14;71.21;100433.69;5036677;27;102451;-57
2022/10/03 12:23:17;;;;;;;114.20;108.43;;;;;;;19.14;71.85;100428.16;5036196;27;102121;-56
2022/10/03 12:25:46;;;;;;;109.93;104.53;;;;;;;19.14;71.80;100430.94;5038690;27;102258;-56
2022/10/03 12:28:16;;;;;;;;;;;;;;;19.13;71.99;100426.56;5022866;27;103883;-56
2022/10/03 12:30:50;;;;;;;85.72;81.50;;;;;;;19.12;71.75;100420.25;5018073;28;101992;-56
2022/10/03 12:33:40;;;;;;;113.82;108.25;;;;;;;19.12;71.74;100424.97;5016197;28;102762;-56
2022/10/03 12:36:14;;;;;;;107.07;101.82;;;;;;;19.13;71.76;100421.06;5018085;28;102290;-56
2022/10/03 12:38:53;;;;;;;111.55;106.10;;;;;;;19.12;71.93;100419.44;5020198;28;103714;-57
2022/10/03 12:41:46;;;;;;;117.63;111.93;;;;;;;19.12;72.01;100411.16;5028699;27;102253;-56